Newald, Wisconsin
Current Conditions -  °F | °C
As of 5:35 PM on Sunday 21 Dec 2014 (Local Time) from KEGV Reporting Station
Light Snow Light Snow  
Wind Chill: 25°   Ceiling: 600
Heat Index: 32°   Visibility: 1.7mi
Dew Point: 32°   Wind: 8mph
Humidity: 100%   Direction: 170°S
Pressure: 29.85"   Gusts: NA
Location:  45.724°N, 88.8585°W
Report Text: KEGV 212335Z AUTO 17007KT 1 3/4SM -SN OVC006 00/00 A2985 RMK AO2 T00000000
Loading
Personal Weather Stations






























Interactive Weather Map New forecast layout! Learn more

10-Day Weather Forecast

Advertisements
Track Severe Weather on mobile